Time;durP1;ratioP1;P1;durP2;ratioP2;P2;SDS_P1;SDS_P2;PMS_P1;PMS_P2;Temp;Humidity;BMP_temperature;BMP_pressure;BME280_temperature;BME280_humidity;BME280_pressure;Samples;Min_cycle;Max_cycle;Signal;HPM_P1;HPM_P2
2023/09/01 00:01:13;;;;;;;2.17;1.93;;;;;;;11.21;90.00;100752.44;4989562;28;20205;-73
2023/09/01 00:04:13;;;;;;;3.63;2.20;;;;;;;11.16;90.69;100750.00;4989542;28;20220;-73
2023/09/01 00:06:39;;;;;;;2.50;2.30;;;;;;;11.13;90.94;100761.22;4989440;28;20208;-72
2023/09/01 00:09:07;;;;;;;2.77;2.13;;;;;;;11.10;90.65;100753.94;4988148;28;20241;-73
2023/09/01 00:11:33;;;;;;;2.37;2.00;;;;;;;11.06;90.89;100760.94;4986325;28;20231;-74
2023/09/01 00:14:00;;;;;;;2.97;2.23;;;;;;;11.04;91.37;100761.31;4988760;28;20239;-74
2023/09/01 00:16:26;;;;;;;6.23;2.20;;;;;;;11.00;92.02;100763.03;4990875;28;20210;-73
2023/09/01 00:18:52;;;;;;;2.50;2.30;;;;;;;10.99;92.03;100760.72;4987287;28;20244;-73
2023/09/01 00:21:19;;;;;;;2.50;2.00;;;;;;;10.95;92.03;100763.22;4988825;28;20694;-72
2023/09/01 00:23:45;;;;;;;2.33;2.10;;;;;;;10.94;92.26;100763.53;4987799;28;20833;-73
2023/09/01 00:26:13;;;;;;;2.70;2.50;;;;;;;10.94;92.49;100760.91;4990045;28;20721;-73
2023/09/01 00:28:40;;;;;;;2.70;1.90;;;;;;;10.89;92.01;100761.09;4988699;28;20615;-73
2023/09/01 00:31:07;;;;;;;2.30;2.10;;;;;;;10.86;91.66;100761.72;4989415;28;20691;-73
2023/09/01 00:33:33;;;;;;;3.87;1.80;;;;;;;10.78;91.39;100757.28;4989786;28;20572;-72
2023/09/01 00:36:00;;;;;;;2.53;1.70;;;;;;;10.78;91.32;100759.94;4987244;28;20205;-74
2023/09/01 00:38:31;;;;;;;3.77;2.40;;;;;;;10.75;91.99;100758.72;4987269;28;20702;-73
2023/09/01 00:40:57;;;;;;;4.97;1.97;;;;;;;10.74;92.65;100759.81;4989676;28;20334;-74
2023/09/01 00:43:25;;;;;;;3.63;2.03;;;;;;;10.74;92.84;100756.38;4985385;28;20976;-73
2023/09/01 00:45:51;;;;;;;2.97;2.40;;;;;;;10.73;93.11;100752.19;4985326;28;20201;-72
2023/09/01 00:48:18;;;;;;;2.80;2.30;;;;;;;10.73;93.29;100757.50;4993498;28;20215;-72
2023/09/01 00:50:48;;;;;;;2.33;1.90;;;;;;;10.71;93.49;100757.03;4986471;28;20204;-74
2023/09/01 00:53:15;;;;;;;2.27;2.00;;;;;;;10.72;93.36;100755.94;4990961;28;20215;-73
2023/09/01 00:55:41;;;;;;;2.60;2.40;;;;;;;10.73;93.90;100760.13;4991749;28;20204;-74
2023/09/01 00:58:07;;;;;;;4.33;2.20;;;;;;;10.72;94.71;100758.59;4992276;28;20297;-72
2023/09/01 01:00:35;;;;;;;3.80;2.37;;;;;;;10.70;94.66;100752.84;4990248;28;20235;-73
2023/09/01 01:03:05;;;;;;;2.60;2.40;;;;;;;10.71;95.03;100754.41;4993306;28;20313;-74
2023/09/01 01:05:39;;;;;;;2.53;2.10;;;;;;;10.70;94.46;100752.84;4992399;28;20221;-73
2023/09/01 01:08:16;;;;;;;2.20;2.00;;;;;;;10.68;94.84;100763.75;4985012;28;20216;-74
2023/09/01 01:10:50;;;;;;;2.80;2.60;;;;;;;10.66;94.46;100762.50;4992217;28;20970;-73
2023/09/01 01:13:20;;;;;;;2.60;2.20;;;;;;;10.67;95.01;100762.19;4992172;28;20193;-72
2023/09/01 01:15:52;;;;;;;3.10;2.80;;;;;;;10.66;95.22;100765.91;4989493;28;20849;-73
2023/09/01 01:18:19;;;;;;;2.80;2.60;;;;;;;10.66;95.97;100762.50;5005096;28;20208;-73
2023/09/01 01:20:52;;;;;;;3.10;2.90;;;;;;;10.63;95.77;100766.56;4992192;28;20220;-74
2023/09/01 01:23:20;;;;;;;3.53;2.80;;;;;;;10.61;95.95;100762.72;4992139;28;20212;-74
2023/09/01 01:25:48;;;;;;;3.07;2.87;;;;;;;10.61;95.13;100760.06;4984506;28;20660;-73
2023/09/01 01:28:15;;;;;;;3.03;2.53;;;;;;;10.58;95.11;100765.97;4993522;28;20770;-73
2023/09/01 01:30:42;;;;;;;3.23;2.53;;;;;;;10.57;95.53;100770.47;4989831;28;20306;-73
2023/09/01 01:33:22;;;;;;;3.80;2.50;;;;;;;10.54;95.88;100772.97;4988269;28;20208;-73
2023/09/01 01:35:54;;;;;;;6.13;2.50;;;;;;;10.53;96.09;100766.94;5007796;28;20224;-74
2023/09/01 01:38:26;;;;;;;3.20;2.90;;;;;;;10.51;95.54;100766.47;4990903;28;20377;-75
2023/09/01 01:41:04;;;;;;;2.97;2.67;;;;;;;10.49;95.88;100763.38;4991492;28;20368;-74
2023/09/01 01:43:33;;;;;;;3.73;2.63;;;;;;;10.47;96.04;100764.81;4991425;28;20247;-73
2023/09/01 01:45:59;;;;;;;3.27;2.97;;;;;;;10.42;95.71;100772.91;4985373;28;20275;-73
2023/09/01 01:48:26;;;;;;;2.70;2.43;;;;;;;10.42;96.13;100768.41;4991412;28;21121;-73
2023/09/01 01:50:55;;;;;;;3.00;2.60;;;;;;;10.37;95.44;100759.88;4990069;28;20208;-74
2023/09/01 01:53:22;;;;;;;3.30;2.50;;;;;;;10.37;96.19;100773.09;4988251;28;20246;-73
2023/09/01 01:55:49;;;;;;;3.10;2.80;;;;;;;10.35;95.95;100767.38;4989947;28;20212;-73
2023/09/01 01:58:15;;;;;;;2.80;2.60;;;;;;;10.33;95.75;100765.03;4990379;28;20339;-73
2023/09/01 02:00:42;;;;;;;3.67;3.00;;;;;;;10.32;96.02;100765.34;4991156;28;20224;-74
2023/09/01 02:03:08;;;;;;;4.37;2.87;;;;;;;10.32;96.78;100762.72;4991253;28;20220;-73
2023/09/01 02:05:34;;;;;;;2.77;2.57;;;;;;;10.29;96.39;100761.47;4992977;28;20215;-74
2023/09/01 02:08:01;;;;;;;3.97;3.00;;;;;;;10.29;96.19;100768.63;4991848;28;20201;-72
2023/09/01 02:10:29;;;;;;;3.60;3.23;;;;;;;10.27;96.58;100763.69;4991267;28;20291;-73
2023/09/01 02:12:56;;;;;;;3.77;3.30;;;;;;;10.27;96.96;100762.88;4990706;28;20219;-73
2023/09/01 02:15:22;;;;;;;3.10;2.80;;;;;;;10.25;96.92;100759.81;4991383;28;20698;-74
2023/09/01 02:17:49;;;;;;;3.20;2.90;;;;;;;10.26;96.69;100766.63;4985721;28;20707;-74
2023/09/01 02:20:17;;;;;;;3.87;3.47;;;;;;;10.23;97.86;100765.41;4991885;28;20727;-73
2023/09/01 02:22:44;;;;;;;5.73;3.07;;;;;;;10.26;97.02;100764.75;4993043;28;20223;-73
2023/09/01 02:25:12;;;;;;;6.10;3.27;;;;;;;10.24;97.70;100766.19;4991396;28;20227;-73
2023/09/01 02:27:41;;;;;;;3.83;2.80;;;;;;;10.23;98.41;100767.25;4990728;28;20217;-73
2023/09/01 02:30:08;;;;;;;3.53;3.23;;;;;;;10.24;98.10;100763.53;4992661;28;20620;-73
2023/09/01 02:32:35;;;;;;;4.30;3.00;;;;;;;10.19;98.16;100769.75;5007796;28;20614;-73
2023/09/01 02:35:05;;;;;;;2.90;2.60;;;;;;;10.17;98.51;100769.31;4992833;28;20241;-74
2023/09/01 02:37:32;;;;;;;3.40;2.73;;;;;;;10.15;97.65;100770.72;4989535;28;20702;-73
2023/09/01 02:39:58;;;;;;;3.30;3.00;;;;;;;10.12;97.96;100777.41;4991340;28;20309;-74
2023/09/01 02:42:24;;;;;;;5.63;3.07;;;;;;;10.12;97.75;100771.34;4988048;28;20207;-73
2023/09/01 02:44:52;;;;;;;3.20;2.90;;;;;;;10.09;97.92;100772.75;4991641;28;20233;-73
2023/09/01 02:47:18;;;;;;;4.30;3.50;;;;;;;10.11;98.14;100778.50;4988963;28;20231;-74
2023/09/01 02:49:45;;;;;;;3.80;3.40;;;;;;;10.10;98.26;100768.25;5007481;28;20674;-73
2023/09/01 02:52:11;;;;;;;3.67;3.23;;;;;;;10.08;97.95;100773.84;4983650;28;20576;-73
2023/09/01 02:54:38;;;;;;;6.03;3.70;;;;;;;10.05;98.33;100781.63;4989712;28;20294;-73
2023/09/01 02:57:04;;;;;;;3.37;3.07;;;;;;;10.03;98.05;100779.25;4990835;28;20464;-73
2023/09/01 02:59:31;;;;;;;4.27;3.70;;;;;;;10.02;98.27;100783.00;4989845;28;20200;-73
2023/09/01 03:01:59;;;;;;;3.70;3.40;;;;;;;10.02;98.23;100785.63;4991268;28;20217;-74
2023/09/01 03:04:25;;;;;;;6.20;3.87;;;;;;;10.01;97.84;100784.09;4988640;28;20239;-74
2023/09/01 03:06:51;;;;;;;4.90;4.00;;;;;;;10.02;98.46;100783.00;4989288;28;20210;-74
2023/09/01 03:09:18;;;;;;;6.53;4.23;;;;;;;10.03;98.20;100779.25;4988793;28;20225;-74
2023/09/01 03:11:44;;;;;;;5.17;3.80;;;;;;;10.06;98.64;100780.53;4983838;28;20223;-73
2023/09/01 03:14:10;;;;;;;4.27;3.87;;;;;;;10.07;98.24;100774.16;4988759;28;20377;-72
2023/09/01 03:16:37;;;;;;;4.33;3.80;;;;;;;10.05;98.71;100771.81;4986910;28;20214;-73
2023/09/01 03:19:05;;;;;;;4.43;4.00;;;;;;;10.07;99.71;100777.56;5006041;28;20211;-72
2023/09/01 03:21:31;;;;;;;4.50;4.10;;;;;;;10.08;99.44;100780.97;4987963;28;20215;-73
2023/09/01 03:23:58;;;;;;;8.17;5.00;;;;;;;10.07;99.54;100772.31;4988757;28;20236;-73
2023/09/01 03:26:24;;;;;;;4.37;3.97;;;;;;;10.05;99.30;100781.63;4987927;28;20218;-74
2023/09/01 03:28:51;;;;;;;4.83;4.33;;;;;;;10.03;98.93;100786.38;5004073;28;20216;-73
2023/09/01 03:31:18;;;;;;;5.33;4.07;;;;;;;10.02;98.57;100780.34;4991154;28;20560;-73
2023/09/01 03:33:44;;;;;;;5.30;4.30;;;;;;;10.02;98.80;100784.84;4990717;28;20230;-73
2023/09/01 03:36:14;;;;;;;5.70;4.33;;;;;;;10.01;98.95;100778.81;4985937;28;20804;-73
2023/09/01 03:38:40;;;;;;;5.23;4.57;;;;;;;10.01;98.22;100775.41;4990084;28;20225;-74
2023/09/01 03:41:08;;;;;;;5.93;5.40;;;;;;;9.99;98.19;100772.31;4988927;28;20213;-73
2023/09/01 03:43:35;;;;;;;5.30;4.67;;;;;;;10.02;98.65;100771.66;4988271;28;21228;-73
2023/09/01 03:46:03;;;;;;;5.63;4.97;;;;;;;10.02;97.93;100771.66;4989190;28;20687;-73
2023/09/01 03:48:29;;;;;;;5.53;4.93;;;;;;;10.05;98.61;100776.34;5005813;28;20212;-73
2023/09/01 03:51:06;;;;;;;5.63;4.77;;;;;;;10.07;98.13;100776.78;4981330;28;20415;-74
2023/09/01 03:53:34;;;;;;;5.97;5.27;;;;;;;10.09;98.51;100785.94;4987160;28;20253;-72
2023/09/01 03:56:01;;;;;;;7.40;5.33;;;;;;;10.12;98.51;100779.25;4987274;28;20487;-74
2023/09/01 03:58:27;;;;;;;6.57;4.97;;;;;;;10.13;98.72;100784.22;4980918;28;20652;-73
2023/09/01 04:00:54;;;;;;;8.60;5.60;;;;;;;10.17;98.42;100787.00;4985790;28;20582;-73
2023/09/01 04:03:20;;;;;;;6.60;5.07;;;;;;;10.18;98.33;100781.41;4988306;28;20209;-74
2023/09/01 04:05:46;;;;;;;7.73;5.17;;;;;;;10.20;98.78;100778.47;4989516;28;20568;-74
2023/09/01 04:08:13;;;;;;;5.47;4.80;;;;;;;10.21;99.32;100785.28;4986793;28;20817;-74
2023/09/01 04:10:41;;;;;;;6.03;4.57;;;;;;;10.20;99.36;100789.00;5002990;28;20202;-72
2023/09/01 04:13:07;;;;;;;9.17;5.27;;;;;;;10.24;98.85;100785.41;4982105;28;21288;-73
2023/09/01 04:15:34;;;;;;;8.87;4.90;;;;;;;10.25;99.75;100789.59;5002345;28;20208;-73
2023/09/01 04:18:00;;;;;;;6.17;5.00;;;;;;;10.23;99.41;100791.00;4989594;28;20209;-73
2023/09/01 04:20:26;;;;;;;5.10;4.60;;;;;;;10.24;99.49;100789.94;4989431;28;20217;-73
2023/09/01 04:22:53;;;;;;;6.73;5.40;;;;;;;10.24;99.72;100795.97;4990305;28;20212;-74
2023/09/01 04:25:19;;;;;;;6.60;5.10;;;;;;;10.25;100.00;100794.13;4986917;28;20780;-73
2023/09/01 04:27:47;;;;;;;6.00;5.40;;;;;;;10.23;99.45;100785.72;4991852;28;20283;-74
2023/09/01 04:30:13;;;;;;;5.30;4.63;;;;;;;10.23;99.98;100793.63;4992937;28;20203;-73
2023/09/01 04:32:43;;;;;;;7.67;5.47;;;;;;;10.24;99.49;100793.31;4988370;28;20204;-73
2023/09/01 04:35:11;;;;;;;5.37;4.77;;;;;;;10.27;98.87;100802.47;4991629;28;21134;-73
2023/09/01 04:37:38;;;;;;;6.03;4.67;;;;;;;10.29;100.00;100802.91;5007133;28;20271;-72
2023/09/01 04:40:07;;;;;;;5.67;4.70;;;;;;;10.28;99.46;100804.03;4988550;28;21032;-73
2023/09/01 04:42:33;;;;;;;7.07;6.03;;;;;;;10.32;99.60;100804.94;4988246;28;20206;-73
2023/09/01 04:45:03;;;;;;;7.77;5.67;;;;;;;10.34;99.59;100803.53;4989433;28;20282;-74
2023/09/01 04:47:30;;;;;;;8.63;5.37;;;;;;;10.36;100.00;100803.97;4990335;28;20826;-73
2023/09/01 04:49:57;;;;;;;8.23;5.53;;;;;;;10.37;100.00;100807.41;4991304;28;20324;-75
2023/09/01 04:52:24;;;;;;;10.23;6.33;;;;;;;10.42;100.00;100808.00;4988823;28;20220;-73
2023/09/01 04:54:50;;;;;;;6.20;5.60;;;;;;;10.43;99.94;100811.41;4987462;28;20246;-73
2023/09/01 04:57:17;;;;;;;7.63;6.00;;;;;;;10.47;100.00;100807.03;4990408;28;20201;-72
2023/09/01 04:59:45;;;;;;;7.83;6.10;;;;;;;10.50;100.00;100814.34;5003818;28;20216;-73
2023/09/01 05:02:12;;;;;;;8.00;6.03;;;;;;;10.50;100.00;100806.41;4986582;28;20683;-74
2023/09/01 05:04:39;;;;;;;8.83;6.13;;;;;;;10.54;100.00;100809.94;5004647;28;20730;-74
2023/09/01 05:07:05;;;;;;;7.53;5.90;;;;;;;10.56;100.00;100811.16;5001250;28;20197;-74
2023/09/01 05:09:31;;;;;;;9.37;6.30;;;;;;;10.57;100.00;100818.00;4984281;28;20213;-73
2023/09/01 05:11:58;;;;;;;8.47;6.37;;;;;;;10.60;100.00;100813.94;4983216;28;20212;-74
2023/09/01 05:14:24;;;;;;;9.20;8.07;;;;;;;10.65;100.00;100824.31;4985068;28;20580;-73
2023/09/01 05:16:51;;;;;;;11.20;7.27;;;;;;;10.67;100.00;100822.16;5001085;28;20208;-74
2023/09/01 05:19:18;;;;;;;14.07;7.40;;;;;;;10.68;100.00;100818.41;5003857;28;20214;-74
2023/09/01 05:21:45;;;;;;;11.33;7.30;;;;;;;10.71;100.00;100826.47;5003824;28;20220;-73
2023/09/01 05:24:11;;;;;;;11.17;7.60;;;;;;;10.74;100.00;100823.19;5003018;28;20469;-74
2023/09/01 05:26:37;;;;;;;13.43;7.80;;;;;;;10.76;100.00;100828.94;5007225;28;20675;-73
2023/09/01 05:29:04;;;;;;;7.80;6.93;;;;;;;10.80;100.00;100826.41;5003532;28;20266;-74
2023/09/01 05:31:30;;;;;;;10.63;7.50;;;;;;;10.82;100.00;100832.94;5004773;28;20193;-74
2023/09/01 05:34:00;;;;;;;10.07;7.63;;;;;;;10.87;100.00;100837.28;4999689;28;20294;-73
2023/09/01 05:36:29;;;;;;;10.10;6.77;;;;;;;10.94;100.00;100837.53;4994138;28;20221;-74
2023/09/01 05:38:55;;;;;;;9.00;7.57;;;;;;;10.98;100.00;100831.25;5008389;28;20207;-74
2023/09/01 05:41:21;;;;;;;10.67;8.23;;;;;;;11.05;100.00;100828.91;4989059;28;20217;-74
2023/09/01 05:43:48;;;;;;;12.33;7.57;;;;;;;11.11;100.00;100834.75;4995937;28;20283;-74
2023/09/01 05:46:15;;;;;;;17.03;8.43;;;;;;;11.17;100.00;100841.38;4995244;28;20200;-74
2023/09/01 05:48:41;;;;;;;12.80;7.67;;;;;;;11.23;100.00;100842.78;4995225;28;20216;-74
2023/09/01 05:51:08;;;;;;;11.17;7.50;;;;;;;11.31;100.00;100845.34;4988238;28;20201;-73
2023/09/01 05:53:36;;;;;;;12.17;8.80;;;;;;;11.41;100.00;100842.31;4996354;28;20580;-74
2023/09/01 05:56:02;;;;;;;11.07;8.30;;;;;;;11.48;100.00;100853.13;4995489;28;20209;-74
2023/09/01 05:58:29;;;;;;;13.17;8.47;;;;;;;11.57;100.00;100851.19;4995390;28;20904;-73
2023/09/01 06:00:56;;;;;;;14.03;8.40;;;;;;;11.67;100.00;100850.81;4993385;28;20240;-74
2023/09/01 06:03:22;;;;;;;14.77;7.97;;;;;;;11.80;100.00;100857.69;4993345;28;20245;-74
2023/09/01 06:05:49;;;;;;;12.13;8.10;;;;;;;11.88;100.00;100863.97;4994268;28;20210;-74
2023/09/01 06:08:15;;;;;;;11.70;7.97;;;;;;;11.99;100.00;100865.13;5007874;28;20217;-74
2023/09/01 06:10:43;;;;;;;10.97;7.87;;;;;;;12.10;100.00;100863.59;4990032;28;20201;-74
2023/09/01 06:13:09;;;;;;;11.97;8.13;;;;;;;12.19;100.00;100865.06;5002919;28;20215;-74
2023/09/01 06:15:36;;;;;;;9.70;7.53;;;;;;;12.31;100.00;100859.00;4990827;28;20712;-74
2023/09/01 06:18:02;;;;;;;12.93;8.33;;;;;;;12.40;100.00;100865.75;4988111;28;21175;-74
2023/09/01 06:20:29;;;;;;;10.60;8.30;;;;;;;12.51;100.00;100872.16;4986038;28;20212;-74
2023/09/01 06:22:55;;;;;;;10.57;8.13;;;;;;;12.59;99.91;100873.16;4989318;28;20215;-74
2023/09/01 06:25:22;;;;;;;11.77;7.87;;;;;;;12.67;99.49;100870.38;4989039;28;20231;-74
2023/09/01 06:27:50;;;;;;;14.67;8.33;;;;;;;12.77;99.07;100872.59;4986207;28;20569;-74
2023/09/01 06:30:16;;;;;;;10.43;7.53;;;;;;;12.87;98.79;100877.44;4986782;28;20236;-74
2023/09/01 06:32:42;;;;;;;9.87;7.67;;;;;;;12.94;99.03;100879.53;4986174;28;20212;-74
2023/09/01 06:35:09;;;;;;;9.93;8.27;;;;;;;13.05;98.56;100878.75;4984498;28;20325;-74
2023/09/01 06:37:35;;;;;;;11.53;7.47;;;;;;;13.13;97.47;100883.19;4986698;28;20197;-74
2023/09/01 06:40:03;;;;;;;9.53;7.63;;;;;;;13.21;96.63;100881.50;4986521;28;20197;-74
2023/09/01 06:42:29;;;;;;;12.53;7.67;;;;;;;13.29;96.12;100878.72;4986581;28;20800;-74
2023/09/01 06:44:57;;;;;;;11.33;7.40;;;;;;;13.36;95.72;100886.13;4987133;28;20323;-74
2023/09/01 06:47:24;;;;;;;11.23;7.57;;;;;;;13.42;94.59;100874.94;4985774;28;20208;-74
2023/09/01 06:49:50;;;;;;;11.83;7.77;;;;;;;13.49;94.04;100882.28;4987333;28;20205;-74
2023/09/01 06:52:17;;;;;;;10.13;7.00;;;;;;;13.54;93.39;100888.16;4984813;28;20208;-74
2023/09/01 06:54:44;;;;;;;11.10;7.50;;;;;;;13.60;93.30;100875.41;4981641;28;20267;-74
2023/09/01 06:57:10;;;;;;;11.33;7.53;;;;;;;13.68;92.75;100879.81;4984315;28;20208;-74
2023/09/01 06:59:36;;;;;;;11.67;7.33;;;;;;;13.73;92.11;100883.00;4986758;28;20280;-75
2023/09/01 07:02:04;;;;;;;10.07;6.27;;;;;;;13.80;91.90;100883.19;4986547;28;20217;-75
2023/09/01 07:04:30;;;;;;;10.30;6.33;;;;;;;13.89;91.60;100877.72;4988126;28;21020;-75
2023/09/01 07:06:58;;;;;;;9.30;6.47;;;;;;;13.98;91.12;100883.66;4988485;28;20721;-74
2023/09/01 07:09:24;;;;;;;9.67;6.20;;;;;;;14.06;89.66;100880.03;4985867;28;20597;-74
2023/09/01 07:11:50;;;;;;;10.20;6.57;;;;;;;14.17;88.64;100886.41;4984704;28;20568;-75
2023/09/01 07:14:17;;;;;;;8.30;5.83;;;;;;;14.22;88.86;100884.31;4986283;28;20240;-74
2023/09/01 07:16:43;;;;;;;7.27;4.63;;;;;;;14.31;89.28;100882.25;4986100;28;20779;-74
2023/09/01 07:19:12;;;;;;;8.37;5.13;;;;;;;14.44;86.81;100880.28;4985494;28;20235;-74
2023/09/01 07:21:38;;;;;;;7.63;4.43;;;;;;;14.50;87.10;100884.97;4985589;28;20225;-75
2023/09/01 07:24:05;;;;;;;4.40;4.00;;;;;;;14.60;85.58;100881.06;4984775;28;20224;-74
2023/09/01 07:26:31;;;;;;;6.63;3.73;;;;;;;14.68;86.04;100882.75;4984338;28;20195;-74
2023/09/01 07:28:57;;;;;;;5.47;3.60;;;;;;;14.77;86.27;100884.13;4985581;28;20222;-74
2023/09/01 07:31:24;;;;;;;6.13;3.90;;;;;;;14.87;85.26;100894.22;4984678;28;20200;-74
2023/09/01 07:33:50;;;;;;;4.53;3.20;;;;;;;14.97;85.06;100890.25;4981844;28;20716;-74
2023/09/01 07:36:21;;;;;;;3.37;2.97;;;;;;;15.06;85.77;100893.50;4983430;28;20228;-74
2023/09/01 07:38:48;;;;;;;5.07;3.07;;;;;;;15.16;85.23;100892.97;4982377;28;20327;-74
2023/09/01 07:41:14;;;;;;;5.23;2.83;;;;;;;15.28;83.27;100898.16;4981338;28;20220;-74
2023/09/01 07:43:41;;;;;;;4.27;2.80;;;;;;;15.37;83.69;100904.06;4981027;28;20227;-74
2023/09/01 07:46:07;;;;;;;3.70;2.57;;;;;;;15.47;83.73;100903.53;4981273;28;20578;-74
2023/09/01 07:48:34;;;;;;;3.23;2.47;;;;;;;15.61;82.14;100898.47;4979906;28;20682;-75
2023/09/01 07:51:00;;;;;;;3.73;2.57;;;;;;;15.69;82.97;100897.50;4981658;28;20200;-74
2023/09/01 07:53:28;;;;;;;5.67;2.80;;;;;;;15.80;83.00;100909.91;4980188;28;20239;-74
2023/09/01 07:55:54;;;;;;;4.77;2.67;;;;;;;15.95;83.08;100902.94;4979080;28;20218;-74
2023/09/01 07:58:21;;;;;;;3.77;2.70;;;;;;;16.05;81.35;100907.69;4979161;28;20210;-75
2023/09/01 08:00:47;;;;;;;4.60;2.53;;;;;;;16.13;80.04;100907.44;4979766;28;20670;-75
2023/09/01 08:03:13;;;;;;;4.07;2.33;;;;;;;16.22;79.35;100904.56;4979472;28;20298;-74
2023/09/01 08:05:40;;;;;;;6.33;2.63;;;;;;;16.29;80.07;100907.31;4979851;28;20213;-74
2023/09/01 08:08:07;;;;;;;5.60;2.73;;;;;;;16.38;80.90;100906.00;4978279;28;20684;-74
2023/09/01 08:10:35;;;;;;;3.87;2.30;;;;;;;16.48;80.41;100902.75;4978288;28;20565;-74
2023/09/01 08:13:01;;;;;;;5.37;2.80;;;;;;;16.56;79.92;100908.97;4987356;28;20223;-75
2023/09/01 08:15:28;;;;;;;6.07;2.37;;;;;;;16.62;79.76;100912.88;4974073;28;20612;-74
2023/09/01 08:17:54;;;;;;;3.43;2.27;;;;;;;16.69;79.34;100908.41;4973599;28;20215;-75
2023/09/01 08:20:21;;;;;;;5.47;2.47;;;;;;;16.76;77.91;100908.53;4978443;28;20232;-75
2023/09/01 08:22:47;;;;;;;4.07;2.23;;;;;;;16.83;76.30;100902.53;4974325;28;21124;-74
2023/09/01 08:25:14;;;;;;;6.63;2.60;;;;;;;16.89;74.18;100906.41;4977603;28;20243;-74
2023/09/01 08:27:41;;;;;;;4.77;2.70;;;;;;;16.92;74.76;100895.78;4975775;28;20238;-75
2023/09/01 08:30:09;;;;;;;3.33;2.43;;;;;;;16.97;76.88;100894.75;4978353;28;20690;-75
2023/09/01 08:32:35;;;;;;;4.33;2.80;;;;;;;17.03;74.75;100901.28;4975246;28;20208;-74
2023/09/01 08:35:03;;;;;;;5.17;2.60;;;;;;;17.10;73.18;100909.38;4976941;28;20232;-74
2023/09/01 08:37:30;;;;;;;3.60;2.33;;;;;;;17.15;75.43;100903.75;4976293;28;20212;-74
2023/09/01 08:39:56;;;;;;;6.90;2.30;;;;;;;17.23;77.98;100908.81;4978097;28;20913;-75
2023/09/01 08:42:23;;;;;;;4.50;2.60;;;;;;;17.33;74.75;100907.44;4975559;28;20233;-74
2023/09/01 08:44:53;;;;;;;5.50;2.47;;;;;;;17.40;75.79;100900.31;4974398;28;20339;-75
2023/09/01 08:47:21;;;;;;;7.47;2.70;;;;;;;17.49;73.45;100902.69;4974357;28;20216;-74
2023/09/01 08:49:49;;;;;;;3.00;2.00;;;;;;;17.59;72.49;100902.06;4971610;28;20322;-74
2023/09/01 08:52:18;;;;;;;5.30;2.03;;;;;;;17.66;70.64;100889.56;4984458;28;20216;-74
2023/09/01 08:54:45;;;;;;;5.70;2.50;;;;;;;17.77;70.95;100889.66;4970823;28;20243;-73
2023/09/01 08:57:12;;;;;;;2.23;1.97;;;;;;;17.86;73.09;100898.16;4972310;28;20643;-73
2023/09/01 08:59:38;;;;;;;4.87;2.27;;;;;;;17.97;70.69;100894.47;4971035;28;20209;-73
2023/09/01 09:02:07;;;;;;;3.13;1.67;;;;;;;18.05;70.32;100888.03;4972569;28;20236;-73
2023/09/01 09:04:34;;;;;;;5.10;2.03;;;;;;;18.11;71.04;100891.16;4974841;28;20303;-73
2023/09/01 09:07:13;;;;;;;3.80;2.17;;;;;;;18.23;71.49;100893.56;4977867;28;20209;-74
2023/09/01 09:09:50;;;;;;;2.63;1.60;;;;;;;18.29;65.48;100898.19;4978383;28;20913;-74
2023/09/01 09:12:18;;;;;;;3.90;1.80;;;;;;;18.35;68.32;100902.09;4976721;28;20549;-73
2023/09/01 09:14:49;;;;;;;5.33;2.10;;;;;;;18.41;71.58;100905.97;4976938;28;20221;-73
2023/09/01 09:17:17;;;;;;;2.10;1.90;;;;;;;18.45;67.81;100901.41;4976763;28;20205;-74
2023/09/01 09:19:52;;;;;;;4.90;2.43;;;;;;;18.54;66.77;100914.47;4976741;28;20347;-73
2023/09/01 09:22:18;;;;;;;3.90;2.20;;;;;;;18.61;66.80;100917.19;4974142;28;20220;-74
2023/09/01 09:24:45;;;;;;;4.37;1.93;;;;;;;18.66;66.24;100914.94;4973684;28;20319;-74
2023/09/01 09:27:15;;;;;;;5.90;2.30;;;;;;;18.74;71.11;100911.16;4975981;28;20204;-73
2023/09/01 09:29:46;;;;;;;3.33;1.70;;;;;;;18.87;66.87;100917.00;4972871;28;20691;-74
2023/09/01 09:32:22;;;;;;;2.97;2.00;;;;;;;18.94;66.48;100901.75;4973522;28;20202;-73
2023/09/01 09:35:05;;;;;;;7.23;2.40;;;;;;;19.02;66.49;100900.66;4976824;28;20609;-73
2023/09/01 09:37:34;;;;;;;2.67;2.10;;;;;;;19.10;67.90;100901.47;4976491;28;20701;-74
2023/09/01 09:40:11;;;;;;;4.83;2.03;;;;;;;19.18;65.05;100903.03;4974343;28;20287;-74
2023/09/01 09:42:38;;;;;;;3.27;2.33;;;;;;;19.26;64.61;100901.97;4976319;28;20221;-74
2023/09/01 09:45:06;;;;;;;3.57;2.23;;;;;;;19.32;63.68;100901.25;4975717;28;20251;-73
2023/09/01 09:47:34;;;;;;;4.70;2.30;;;;;;;19.36;62.88;100902.00;4978199;28;20223;-74
2023/09/01 09:50:03;;;;;;;4.00;2.10;;;;;;;19.45;62.55;100901.69;4972054;28;20618;-72
2023/09/01 09:52:33;;;;;;;3.13;2.30;;;;;;;19.54;67.44;100897.50;4973856;28;20272;-73
2023/09/01 09:55:06;;;;;;;4.00;2.17;;;;;;;19.61;63.28;100897.50;4975309;28;20311;-74
2023/09/01 09:57:34;;;;;;;3.70;2.40;;;;;;;19.69;66.59;100901.75;4974346;28;20322;-73
2023/09/01 10:00:09;;;;;;;3.73;2.10;;;;;;;19.77;62.08;100900.63;4971655;28;20215;-74
2023/09/01 10:02:51;;;;;;;4.63;2.60;;;;;;;19.88;68.78;100914.06;4970332;28;20321;-74
2023/09/01 10:05:18;;;;;;;4.03;1.97;;;;;;;19.93;61.31;100905.66;4973824;28;20229;-74
2023/09/01 10:07:45;;;;;;;4.57;2.40;;;;;;;19.89;59.31;100908.31;4985574;28;20212;-73
2023/09/01 10:10:12;;;;;;;3.23;2.37;;;;;;;19.95;60.46;100898.75;4972967;28;20239;-75
2023/09/01 10:12:39;;;;;;;4.93;2.20;;;;;;;20.00;62.06;100893.03;4973383;28;20201;-74
2023/09/01 10:15:07;;;;;;;7.20;3.00;;;;;;;20.09;61.69;100892.69;4969324;28;20558;-73
2023/09/01 10:17:34;;;;;;;5.37;1.90;;;;;;;20.11;63.87;100901.88;4972208;28;20216;-73
2023/09/01 10:20:06;;;;;;;3.90;2.13;;;;;;;20.15;61.31;100902.66;4973367;28;20235;-75
2023/09/01 10:22:38;;;;;;;6.83;4.17;;;;;;;20.22;59.95;100902.66;4971758;28;20363;-73
2023/09/01 10:25:16;;;;;;;3.70;2.53;;;;;;;20.39;67.01;100895.78;4971340;28;20312;-73
2023/09/01 10:28:04;;;;;;;5.57;2.60;;;;;;;20.51;60.40;100898.06;4970535;28;20205;-73
2023/09/01 10:30:32;;;;;;;3.67;2.20;;;;;;;20.62;63.29;100899.59;4969675;28;20940;-73
2023/09/01 10:33:12;;;;;;;3.83;2.10;;;;;;;20.69;57.39;100898.84;4972866;28;20205;-74
2023/09/01 10:35:42;;;;;;;3.97;2.13;;;;;;;20.79;59.10;100903.41;4970665;28;20233;-73
2023/09/01 10:38:10;;;;;;;2.73;2.00;;;;;;;20.92;56.93;100901.88;4971005;28;20732;-73
2023/09/01 10:40:40;;;;;;;8.00;2.47;;;;;;;20.96;57.65;100892.66;4972237;28;20206;-75
2023/09/01 10:43:07;;;;;;;2.70;2.03;;;;;;;21.02;55.80;100896.50;4967615;28;20663;-73
2023/09/01 10:45:33;;;;;;;4.27;2.00;;;;;;;21.10;54.42;100895.31;4969921;28;20205;-74
2023/09/01 10:47:59;;;;;;;2.53;1.80;;;;;;;21.20;60.35;100897.22;4970735;28;20699;-74
2023/09/01 10:50:26;;;;;;;3.13;1.75;;;;;;;21.33;58.15;100890.25;4968663;28;20201;-74
2023/09/01 10:53:32;;;;;;;3.60;1.77;;;;;;;21.47;61.16;100897.50;4968676;28;20322;-74
2023/09/01 10:56:09;;;;;;;4.65;2.22;;;;;;;21.53;54.98;100890.56;4969205;28;20215;-74
2023/09/01 10:58:47;;;;;;;3.90;1.90;;;;;;;21.65;53.85;100882.03;4968756;28;20215;-75
2023/09/01 11:01:31;;;;;;;4.30;1.83;;;;;;;21.71;54.82;100881.28;4966246;28;20212;-75
2023/09/01 11:04:33;;;;;;;2.97;2.10;;;;;;;21.67;55.34;100890.50;4956376;28;20712;-74
2023/09/01 11:07:00;;;;;;;2.58;2.13;;;;;;;21.69;59.18;100893.56;4968384;28;20231;-75
2023/09/01 11:09:50;;;;;;;3.03;2.00;;;;;;;21.64;52.27;100883.97;4979468;28;20200;-74
2023/09/01 11:12:17;;;;;;;3.20;2.10;;;;;;;21.61;56.02;100892.03;4970859;28;20201;-74
2023/09/01 11:14:58;;;;;;;4.20;2.20;;;;;;;21.60;51.27;100899.34;4970064;28;21680;-74
2023/09/01 11:17:45;;;;;;;4.97;2.47;;;;;;;21.60;54.14;100898.56;4969494;28;20200;-75
2023/09/01 11:20:14;;;;;;;1.88;1.70;;;;;;;21.58;57.12;100884.78;4970778;28;20251;-75
2023/09/01 11:22:42;;;;;;;3.28;1.95;;;;;;;21.56;52.12;100885.16;4969138;28;20266;-73
2023/09/01 11:25:14;;;;;;;4.15;2.17;;;;;;;21.62;53.65;100883.59;4969596;28;20239;-74
2023/09/01 11:27:48;;;;;;;4.32;2.05;;;;;;;21.61;52.51;100883.97;4967649;28;20204;-74